Time;durP1;ratioP1;P1;durP2;ratioP2;P2;SDS_P1;SDS_P2;PMS_P1;PMS_P2;Temp;Humidity;BMP_temperature;BMP_pressure;BME280_temperature;BME280_humidity;BME280_pressure;Samples;Min_cycle;Max_cycle;Signal;HPM_P1;HPM_P2
2021/06/30 00:02:49;;;;;;;1.65;1.40;;;;;;;;;;6120507;29;20142;-79
2021/06/30 00:05:55;;;;;;;1.70;1.60;;;;;;;;;;6121050;29;20051;-80
2021/06/30 00:09:03;;;;;;;2.33;1.60;;;;;;;;;;6121885;29;20068;-79
2021/06/30 00:12:09;;;;;;;1.75;1.65;;;;;;;;;;6119016;29;20040;-79
2021/06/30 00:15:26;;;;;;;2.03;1.70;;;;;;;;;;6123519;28;20035;-79
2021/06/30 00:18:32;;;;;;;3.15;1.60;;;;;;;;;;6158818;28;20054;-79
2021/06/30 00:21:39;;;;;;;1.63;1.52;;;;;;;;;;6146352;28;20047;-79
2021/06/30 00:24:41;;;;;;;2.45;1.88;;;;;;;;;;6133110;28;20047;-78
2021/06/30 00:27:48;;;;;;;2.10;1.90;;;;;;;;;;6133727;29;20043;-78
2021/06/30 00:30:55;;;;;;;3.72;2.83;;;;;;;;;;6118159;29;20529;-78
2021/06/30 00:34:02;;;;;;;3.95;3.50;;;;;;;;;;6119259;29;20501;-78
2021/06/30 00:37:08;;;;;;;3.97;3.03;;;;;;;;;;6119339;29;20051;-79
2021/06/30 00:40:15;;;;;;;3.28;2.53;;;;;;;;;;6133169;28;20043;-79
2021/06/30 00:43:18;;;;;;;2.50;2.10;;;;;;;;;;6118228;29;20055;-79
2021/06/30 00:46:29;;;;;;;3.00;2.08;;;;;;;;;;6125014;28;20043;-78
2021/06/30 00:49:37;;;;;;;3.92;2.20;;;;;;;;;;6142397;28;20051;-79
2021/06/30 00:52:44;;;;;;;2.88;2.10;;;;;;;;;;6141261;28;20067;-78
2021/06/30 00:55:51;;;;;;;2.92;1.95;;;;;;;;;;6117267;29;20054;-79
2021/06/30 00:59:00;;;;;;;3.30;2.00;;;;;;;;;;6131621;29;20073;-79
2021/06/30 01:02:01;;;;;;;2.10;1.90;;;;;;;;;;6131452;28;20040;-79
2021/06/30 01:05:03;;;;;;;2.97;2.05;;;;;;;;;;6131936;29;20035;-79
2021/06/30 01:08:10;;;;;;;2.50;2.20;;;;;;;;;;6117666;29;20035;-79
2021/06/30 01:11:19;;;;;;;2.35;2.15;;;;;;;;;;6131611;29;20050;-79
2021/06/30 01:14:30;;;;;;;3.13;2.30;;;;;;;;;;6116060;29;20047;-78
2021/06/30 01:17:32;;;;;;;2.42;2.22;;;;;;;;;;6100379;29;20044;-79
2021/06/30 01:20:39;;;;;;;2.83;2.30;;;;;;;;;;6130172;28;20049;-78
2021/06/30 01:23:42;;;;;;;2.42;2.22;;;;;;;;;;6155095;28;20050;-79
2021/06/30 01:26:49;;;;;;;4.25;2.20;;;;;;;;;;6123137;28;20047;-78
2021/06/30 01:29:56;;;;;;;2.65;2.30;;;;;;;;;;6118002;28;20044;-78
2021/06/30 01:33:03;;;;;;;3.45;2.13;;;;;;;;;;6139023;28;20046;-78
2021/06/30 01:36:09;;;;;;;3.10;2.33;;;;;;;;;;6139812;28;20114;-79
2021/06/30 01:39:11;;;;;;;2.92;2.22;;;;;;;;;;6133104;28;20511;-79
2021/06/30 01:42:18;;;;;;;2.60;2.40;;;;;;;;;;6140615;28;20094;-78
2021/06/30 01:45:19;;;;;;;3.08;2.40;;;;;;;;;;6135497;28;20051;-78
2021/06/30 01:48:26;;;;;;;2.92;2.63;;;;;;;;;;6151625;28;20039;-79
2021/06/30 01:51:34;;;;;;;4.60;3.00;;;;;;;;;;6139290;28;20043;-78
2021/06/30 01:54:40;;;;;;;3.80;2.78;;;;;;;;;;6138180;28;20047;-78
2021/06/30 01:57:50;;;;;;;3.30;2.97;;;;;;;;;;6155701;28;20074;-78
2021/06/30 02:00:53;;;;;;;3.35;3.05;;;;;;;;;;6137472;28;20051;-78
2021/06/30 02:04:00;;;;;;;4.05;3.13;;;;;;;;;;6138910;28;20051;-78
2021/06/30 02:07:07;;;;;;;4.88;3.33;;;;;;;;;;6140990;28;20043;-79
2021/06/30 02:10:15;;;;;;;3.65;3.35;;;;;;;;;;6122498;28;20062;-78
2021/06/30 02:13:21;;;;;;;3.90;3.35;;;;;;;;;;6131042;28;20047;-78
2021/06/30 02:16:28;;;;;;;4.07;3.67;;;;;;;;;;6143004;28;20051;-78
2021/06/30 02:19:34;;;;;;;5.88;3.70;;;;;;;;;;6161133;28;20050;-79
2021/06/30 02:22:42;;;;;;;4.45;3.70;;;;;;;;;;6181533;28;20051;-78
2021/06/30 02:25:48;;;;;;;3.58;3.28;;;;;;;;;;6148716;28;20040;-79
2021/06/30 02:28:56;;;;;;;4.68;3.95;;;;;;;;;;6143282;28;20039;-78
2021/06/30 02:32:03;;;;;;;4.63;3.83;;;;;;;;;;6142232;28;20851;-77
2021/06/30 02:35:08;;;;;;;4.28;3.65;;;;;;;;;;6142903;28;20051;-77
2021/06/30 02:38:15;;;;;;;5.00;4.47;;;;;;;;;;6156920;28;20035;-77
2021/06/30 02:41:22;;;;;;;4.75;4.18;;;;;;;;;;6136670;28;20126;-77
2021/06/30 02:44:29;;;;;;;6.03;4.32;;;;;;;;;;6118845;29;20043;-77
2021/06/30 02:47:36;;;;;;;6.25;4.75;;;;;;;;;;6143216;28;20054;-77
2021/06/30 02:50:43;;;;;;;5.32;4.78;;;;;;;;;;6166797;28;20408;-78
2021/06/30 02:53:50;;;;;;;6.65;5.40;;;;;;;;;;6152578;28;20071;-77
2021/06/30 02:56:56;;;;;;;6.82;5.78;;;;;;;;;;6117551;29;20044;-77
2021/06/30 03:00:16;;;;;;;7.15;5.50;;;;;;;;;;6119067;28;20052;-77
2021/06/30 03:03:23;;;;;;;8.45;6.00;;;;;;;;;;6101965;29;20051;-77
2021/06/30 03:06:29;;;;;;;5.90;5.10;;;;;;;;;;6137515;28;20412;-77
2021/06/30 03:09:31;;;;;;;9.02;5.82;;;;;;;;;;6130196;28;20048;-77
2021/06/30 03:12:38;;;;;;;9.00;5.15;;;;;;;;;;6108794;29;20051;-78
2021/06/30 03:15:44;;;;;;;6.00;5.35;;;;;;;;;;6094552;29;20055;-77
2021/06/30 03:18:51;;;;;;;8.70;5.53;;;;;;;;;;6093415;29;20040;-77
2021/06/30 03:21:58;;;;;;;6.85;5.22;;;;;;;;;;6093963;29;20492;-77
2021/06/30 03:25:07;;;;;;;6.75;5.30;;;;;;;;;;6090198;29;20505;-77
2021/06/30 03:28:13;;;;;;;5.80;5.20;;;;;;;;;;6108309;29;20040;-77
2021/06/30 03:31:20;;;;;;;6.57;5.80;;;;;;;;;;6100419;29;20040;-77
2021/06/30 03:34:21;;;;;;;6.68;5.55;;;;;;;;;;6116852;29;20039;-77
2021/06/30 03:37:28;;;;;;;6.18;5.57;;;;;;;;;;6118292;29;20062;-77
2021/06/30 03:40:35;;;;;;;5.97;5.32;;;;;;;;;;6136569;28;20412;-77
2021/06/30 03:43:41;;;;;;;8.15;5.38;;;;;;;;;;6127370;28;20050;-77
2021/06/30 03:46:49;;;;;;;8.25;6.38;;;;;;;;;;6114876;28;20047;-77
2021/06/30 03:49:51;;;;;;;7.13;6.07;;;;;;;;;;6138714;28;20416;-77
2021/06/30 03:52:58;;;;;;;7.38;6.15;;;;;;;;;;6140589;28;20051;-77
2021/06/30 03:55:59;;;;;;;8.57;6.38;;;;;;;;;;6145693;28;20044;-77
2021/06/30 03:59:01;;;;;;;8.30;6.65;;;;;;;;;;6117253;28;20060;-77
2021/06/30 04:02:08;;;;;;;9.18;7.07;;;;;;;;;;6117535;28;20047;-77
2021/06/30 04:05:14;;;;;;;10.13;6.88;;;;;;;;;;6116134;29;20046;-77
2021/06/30 04:08:21;;;;;;;8.27;6.35;;;;;;;;;;6117217;29;20457;-76
2021/06/30 04:11:27;;;;;;;8.05;6.30;;;;;;;;;;6105773;29;20043;-77
2021/06/30 04:14:34;;;;;;;7.05;6.32;;;;;;;;;;6116462;29;20441;-77
2021/06/30 04:17:41;;;;;;;9.45;6.15;;;;;;;;;;6131066;28;20054;-77
2021/06/30 04:20:47;;;;;;;10.98;7.65;;;;;;;;;;6115298;29;20392;-77
2021/06/30 04:23:50;;;;;;;8.18;6.95;;;;;;;;;;6116331;29;20048;-77
2021/06/30 04:26:56;;;;;;;10.85;6.80;;;;;;;;;;6116413;29;20114;-77
2021/06/30 04:29:59;;;;;;;7.38;6.45;;;;;;;;;;6115014;29;20056;-77
2021/06/30 04:33:06;;;;;;;8.23;7.07;;;;;;;;;;6114442;29;20051;-77
2021/06/30 04:36:12;;;;;;;10.23;6.80;;;;;;;;;;6116184;29;20047;-77
2021/06/30 04:39:20;;;;;;;7.57;6.60;;;;;;;;;;6124855;28;20040;-77
2021/06/30 04:42:26;;;;;;;8.10;6.57;;;;;;;;;;6139953;28;20119;-76
2021/06/30 04:45:28;;;;;;;6.88;6.18;;;;;;;;;;6147298;28;20048;-77
2021/06/30 04:48:35;;;;;;;7.32;6.47;;;;;;;;;;6140164;28;20050;-77
2021/06/30 04:51:44;;;;;;;7.18;5.82;;;;;;;;;;6139935;28;20058;-77
2021/06/30 04:54:51;;;;;;;11.43;7.13;;;;;;;;;;6126918;28;20051;-77
2021/06/30 04:57:57;;;;;;;8.63;6.80;;;;;;;;;;6114507;29;20078;-77
2021/06/30 05:01:05;;;;;;;9.05;7.55;;;;;;;;;;6129483;28;20059;-77
2021/06/30 05:04:06;;;;;;;8.32;7.05;;;;;;;;;;6115264;29;20043;-77
2021/06/30 05:07:13;;;;;;;10.85;7.32;;;;;;;;;;6116357;29;20039;-77
2021/06/30 05:10:19;;;;;;;7.30;6.43;;;;;;;;;;6115517;29;20055;-77
2021/06/30 05:13:21;;;;;;;9.23;7.10;;;;;;;;;;6116003;29;20048;-78
2021/06/30 05:16:28;;;;;;;9.23;7.63;;;;;;;;;;6115420;29;20047;-77
2021/06/30 05:19:34;;;;;;;10.70;7.90;;;;;;;;;;6115749;29;20047;-78
2021/06/30 05:22:41;;;;;;;9.07;7.60;;;;;;;;;;6115915;29;20048;-76
2021/06/30 05:25:48;;;;;;;9.95;7.82;;;;;;;;;;6126278;28;20500;-77
2021/06/30 05:28:49;;;;;;;8.95;7.53;;;;;;;;;;6138051;28;20039;-76
2021/06/30 05:31:51;;;;;;;8.00;6.55;;;;;;;;;;6112587;29;20047;-76
2021/06/30 05:34:57;;;;;;;7.43;6.22;;;;;;;;;;6113888;29;20525;-77
2021/06/30 05:38:04;;;;;;;8.88;5.95;;;;;;;;;;6116033;29;20058;-76
2021/06/30 05:41:11;;;;;;;6.43;5.20;;;;;;;;;;6113326;28;20062;-77
2021/06/30 05:44:17;;;;;;;5.15;4.65;;;;;;;;;;6116970;29;20051;-76
2021/06/30 05:47:24;;;;;;;6.20;5.05;;;;;;;;;;6136113;28;20528;-76
2021/06/30 05:50:30;;;;;;;5.53;5.03;;;;;;;;;;6142309;28;20047;-76
2021/06/30 05:53:38;;;;;;;6.13;4.78;;;;;;;;;;6143532;28;20058;-76
2021/06/30 05:56:40;;;;;;;6.00;5.25;;;;;;;;;;6124062;29;20051;-76
2021/06/30 05:59:46;;;;;;;4.78;4.28;;;;;;;;;;6120179;29;20052;-77
2021/06/30 06:02:53;;;;;;;4.38;3.92;;;;;;;;;;6138039;28;20099;-77
2021/06/30 06:05:54;;;;;;;4.38;3.97;;;;;;;;;;6140419;28;20047;-77
2021/06/30 06:09:01;;;;;;;4.15;3.40;;;;;;;;;;6142099;28;20071;-76
2021/06/30 06:12:08;;;;;;;3.80;3.50;;;;;;;;;;6138382;28;20039;-77
2021/06/30 06:15:14;;;;;;;3.95;3.55;;;;;;;;;;6122245;28;20568;-77
2021/06/30 06:18:21;;;;;;;3.63;3.17;;;;;;;;;;6156775;28;20043;-77
2021/06/30 06:21:28;;;;;;;6.28;3.65;;;;;;;;;;6116680;28;20374;-76
2021/06/30 06:24:29;;;;;;;6.43;3.47;;;;;;;;;;6115955;28;20055;-77
2021/06/30 06:27:38;;;;;;;3.92;2.70;;;;;;;;;;6114634;28;20051;-77
2021/06/30 06:30:48;;;;;;;2.97;2.42;;;;;;;;;;6115815;28;20574;-77
2021/06/30 06:33:50;;;;;;;2.70;2.45;;;;;;;;;;6141226;28;20047;-77
2021/06/30 06:37:00;;;;;;;2.50;2.30;;;;;;;;;;6143585;28;20050;-77
2021/06/30 06:40:09;;;;;;;3.72;2.70;;;;;;;;;;6131546;28;20043;-77
2021/06/30 06:43:16;;;;;;;3.03;2.28;;;;;;;;;;6119324;29;20059;-77
2021/06/30 06:46:22;;;;;;;3.85;2.28;;;;;;;;;;6125820;28;20123;-77
2021/06/30 06:49:29;;;;;;;3.85;3.20;;;;;;;;;;6143162;28;20047;-77
2021/06/30 06:52:36;;;;;;;3.65;3.35;;;;;;;;;;6142999;28;20042;-77
2021/06/30 06:55:42;;;;;;;3.47;3.08;;;;;;;;;;6139195;28;20043;-77
2021/06/30 06:58:49;;;;;;;3.72;3.00;;;;;;;;;;6143572;28;20039;-78
2021/06/30 07:01:55;;;;;;;3.38;2.65;;;;;;;;;;6140175;28;20039;-77
2021/06/30 07:05:02;;;;;;;3.20;2.60;;;;;;;;;;6140849;28;20047;-77
2021/06/30 07:08:09;;;;;;;3.22;2.58;;;;;;;;;;6157196;28;20047;-77
2021/06/30 07:11:16;;;;;;;3.92;2.63;;;;;;;;;;6139292;28;20035;-77
2021/06/30 07:14:23;;;;;;;3.65;2.95;;;;;;;;;;6141029;28;20516;-77
2021/06/30 07:17:29;;;;;;;5.45;3.40;;;;;;;;;;6119850;28;20077;-77
2021/06/30 07:20:36;;;;;;;3.88;2.95;;;;;;;;;;6118241;29;20047;-76
2021/06/30 07:23:42;;;;;;;5.13;3.28;;;;;;;;;;6117729;28;20048;-76
2021/06/30 07:26:49;;;;;;;5.93;3.40;;;;;;;;;;6101779;29;20417;-76
2021/06/30 07:29:51;;;;;;;4.57;3.47;;;;;;;;;;6117329;28;20044;-77
2021/06/30 07:32:58;;;;;;;3.72;3.05;;;;;;;;;;6116489;29;20189;-77
2021/06/30 07:36:06;;;;;;;4.43;3.13;;;;;;;;;;6077000;29;20107;-76
2021/06/30 07:39:12;;;;;;;4.22;3.28;;;;;;;;;;6101440;29;20050;-77
2021/06/30 07:42:14;;;;;;;3.20;2.90;;;;;;;;;;6131952;29;20047;-77
2021/06/30 07:45:21;;;;;;;4.60;2.88;;;;;;;;;;6115943;29;20696;-77
2021/06/30 07:48:22;;;;;;;2.70;2.25;;;;;;;;;;6115902;29;20059;-77
2021/06/30 07:51:24;;;;;;;4.63;2.55;;;;;;;;;;6117132;29;20091;-77
2021/06/30 07:54:26;;;;;;;3.65;2.50;;;;;;;;;;6129808;29;20195;-77
2021/06/30 07:57:27;;;;;;;4.03;2.30;;;;;;;;;;6109228;29;20514;-78
2021/06/30 08:00:29;;;;;;;2.70;2.50;;;;;;;;;;6093701;29;20036;-77
2021/06/30 08:03:31;;;;;;;4.57;2.50;;;;;;;;;;6093128;29;20044;-78
2021/06/30 08:06:34;;;;;;;4.43;2.20;;;;;;;;;;6107733;29;20093;-78
2021/06/30 08:09:36;;;;;;;3.55;2.40;;;;;;;;;;6093283;29;20099;-77
2021/06/30 08:12:38;;;;;;;4.63;2.85;;;;;;;;;;6113034;29;20043;-77
2021/06/30 08:15:40;;;;;;;3.67;3.07;;;;;;;;;;6114665;29;20134;-78
2021/06/30 08:18:41;;;;;;;5.25;2.67;;;;;;;;;;6131627;29;20130;-77
2021/06/30 08:21:43;;;;;;;5.93;2.60;;;;;;;;;;6116563;29;20529;-78
2021/06/30 08:24:45;;;;;;;3.55;2.67;;;;;;;;;;6117286;28;20170;-78
2021/06/30 08:27:46;;;;;;;4.10;2.92;;;;;;;;;;6118042;29;20044;-75
2021/06/30 08:30:48;;;;;;;5.15;3.13;;;;;;;;;;6130424;28;20083;-75
2021/06/30 08:33:50;;;;;;;3.40;3.10;;;;;;;;;;6116387;29;20560;-76
2021/06/30 08:36:57;;;;;;;4.85;3.15;;;;;;;;;;6130165;29;20127;-78
2021/06/30 08:39:59;;;;;;;4.55;2.90;;;;;;;;;;6133176;28;20051;-77
2021/06/30 08:43:00;;;;;;;7.10;3.30;;;;;;;;;;6137430;28;20558;-77
2021/06/30 08:46:03;;;;;;;4.78;3.22;;;;;;;;;;6137340;28;20825;-76
2021/06/30 08:49:06;;;;;;;3.63;2.90;;;;;;;;;;6139414;28;20134;-77
2021/06/30 08:52:08;;;;;;;;;;;;;;;;;;6115948;28;20048;-78
2021/06/30 08:55:12;;;;;;;6.15;3.10;;;;;;;;;;6119928;28;20017;-77
2021/06/30 08:58:13;;;;;;;6.28;2.70;;;;;;;;;;6136461;28;20099;-77
2021/06/30 09:01:16;;;;;;;6.18;2.95;;;;;;;;;;6136939;28;20178;-77
2021/06/30 09:04:18;;;;;;;;;;;;;;;;;;6136927;28;20501;-77
2021/06/30 09:07:20;;;;;;;5.90;3.30;;;;;;;;;;6137824;28;20012;-77
2021/06/30 09:10:30;;;;;;;6.43;3.20;;;;;;;;;;6134129;28;20093;-77
2021/06/30 09:13:32;;;;;;;5.25;3.10;;;;;;;;;;6110460;29;20175;-78
2021/06/30 09:16:57;;;;;;;3.93;2.73;;;;;;;;;;6111287;28;20043;-78
2021/06/30 09:20:08;;;;;;;3.33;2.55;;;;;;;;;;6111927;28;20059;-78
2021/06/30 09:23:10;;;;;;;5.95;3.38;;;;;;;;;;6104106;29;20047;-78
2021/06/30 09:26:12;;;;;;;4.05;2.80;;;;;;;;;;6107355;28;20044;-77
2021/06/30 09:29:14;;;;;;;3.83;2.78;;;;;;;;;;6103787;29;20131;-77
2021/06/30 09:32:17;;;;;;;3.95;2.65;;;;;;;;;;6111505;28;20513;-77
2021/06/30 09:35:25;;;;;;;7.13;2.80;;;;;;;;;;6112696;29;20086;-76
2021/06/30 09:38:33;;;;;;;3.13;2.67;;;;;;;;;;6089848;29;20048;-77
2021/06/30 09:41:36;;;;;;;3.05;2.60;;;;;;;;;;6097650;29;20040;-78
2021/06/30 09:44:39;;;;;;;;;;;;;;;;;;6115085;28;20087;-77
2021/06/30 09:47:49;;;;;;;3.67;1.88;;;;;;;;;;6112336;29;19965;-77
2021/06/30 09:50:51;;;;;;;1.95;1.70;;;;;;;;;;6153650;28;20201;-77
2021/06/30 09:54:02;;;;;;;3.67;2.03;;;;;;;;;;6136079;28;20050;-78
2021/06/30 09:57:06;;;;;;;4.10;2.20;;;;;;;;;;6114723;29;20126;-78
2021/06/30 10:00:12;;;;;;;2.75;1.95;;;;;;;;;;6112335;29;20055;-78
2021/06/30 10:03:38;;;;;;;4.45;2.33;;;;;;;;;;6112102;29;20405;-77
2021/06/30 10:06:39;;;;;;;4.00;2.10;;;;;;;;;;6115172;29;20051;-78
2021/06/30 10:09:47;;;;;;;1.92;1.75;;;;;;;;;;6138642;28;20051;-77
2021/06/30 10:12:49;;;;;;;3.58;1.88;;;;;;;;;;6096941;29;20048;-76
2021/06/30 10:15:51;;;;;;;3.33;2.20;;;;;;;;;;6113210;29;20047;-76
2021/06/30 10:18:57;;;;;;;2.72;1.73;;;;;;;;;;6124433;28;20054;-76
2021/06/30 10:21:59;;;;;;;3.58;2.15;;;;;;;;;;6153284;28;20192;-76
2021/06/30 10:25:01;;;;;;;3.08;2.10;;;;;;;;;;6137463;28;20047;-76
2021/06/30 10:28:04;;;;;;;2.30;1.80;;;;;;;;;;6115670;29;20087;-79
2021/06/30 10:31:05;;;;;;;2.88;1.88;;;;;;;;;;6146386;28;20485;-78
2021/06/30 10:34:10;;;;;;;3.13;1.83;;;;;;;;;;6150670;28;20424;-80
2021/06/30 10:37:28;;;;;;;1.67;1.30;;;;;;;;;;6142483;28;20467;-79
2021/06/30 10:40:31;;;;;;;1.95;1.40;;;;;;;;;;6140995;28;20134;-79
2021/06/30 10:44:09;;;;;;;1.40;1.30;;;;;;;;;;6159470;28;20035;-79
2021/06/30 10:47:55;;;;;;;1.73;1.35;;;;;;;;;;6144934;28;20057;-79
2021/06/30 10:50:57;;;;;;;2.60;1.65;;;;;;;;;;6136970;28;20071;-80
2021/06/30 10:53:59;;;;;;;1.33;1.23;;;;;;;;;;6146344;28;20449;-80
2021/06/30 10:57:22;;;;;;;2.28;1.52;;;;;;;;;;6145854;28;20094;-79
2021/06/30 11:00:33;;;;;;;1.77;1.30;;;;;;;;;;6139680;28;20047;-79
2021/06/30 11:03:36;;;;;;;2.33;1.20;;;;;;;;;;6130746;28;20508;-79
2021/06/30 11:06:38;;;;;;;4.00;1.60;;;;;;;;;;6144342;28;20047;-80
2021/06/30 11:09:40;;;;;;;2.13;1.50;;;;;;;;;;6144245;28;20141;-79
2021/06/30 11:12:58;;;;;;;1.50;1.40;;;;;;;;;;6149356;28;20189;-80
2021/06/30 11:16:00;;;;;;;2.00;1.52;;;;;;;;;;6143444;28;20064;-80
2021/06/30 11:19:17;;;;;;;1.45;1.33;;;;;;;;;;6136271;29;20054;-80
2021/06/30 11:22:25;;;;;;;1.50;1.40;;;;;;;;;;6132317;29;20465;-80
2021/06/30 11:25:26;;;;;;;1.98;1.30;;;;;;;;;;6137143;28;20157;-80
2021/06/30 11:28:37;;;;;;;2.35;1.65;;;;;;;;;;6148400;28;20058;-82
2021/06/30 11:31:39;;;;;;;4.45;1.70;;;;;;;;;;6147830;28;20047;-80
2021/06/30 11:34:41;;;;;;;1.55;1.45;;;;;;;;;;6150445;28;20051;-80
2021/06/30 11:37:45;;;;;;;1.70;1.60;;;;;;;;;;6146784;28;20164;-79
2021/06/30 11:43:53;;;;;;;2.80;1.48;;;;;;;;;;6122220;29;20097;-80
2021/06/30 11:47:01;;;;;;;1.80;1.33;;;;;;;;;;6135615;28;20178;-77
2021/06/30 11:50:04;;;;;;;2.03;1.45;;;;;;;;;;6141369;28;20122;-76
2021/06/30 11:53:06;;;;;;;;;;;;;;;;;;6149468;28;20054;-77
2021/06/30 11:56:10;;;;;;;1.98;1.52;;;;;;;;;;6107779;29;19958;-77
2021/06/30 11:59:19;;;;;;;2.05;1.70;;;;;;;;;;6097671;29;20118;-77
2021/06/30 12:02:21;;;;;;;4.40;1.60;;;;;;;;;;6112945;29;20084;-77
2021/06/30 12:05:25;;;;;;;2.00;1.70;;;;;;;;;;6136544;28;21600;-77
2021/06/30 12:08:27;;;;;;;2.25;1.70;;;;;;;;;;6130219;28;20573;-77
2021/06/30 12:11:30;;;;;;;1.87;1.67;;;;;;;;;;6103968;29;20092;-77
2021/06/30 12:14:43;;;;;;;1.50;1.40;;;;;;;;;;6099465;29;20412;-76
2021/06/30 12:17:55;;;;;;;1.60;1.50;;;;;;;;;;6101313;29;20044;-77
2021/06/30 12:20:57;;;;;;;1.33;1.23;;;;;;;;;;6095599;29;20131;-77
2021/06/30 12:23:59;;;;;;;1.30;1.20;;;;;;;;;;6098177;29;20043;-77
2021/06/30 12:27:05;;;;;;;1.20;1.10;;;;;;;;;;6116751;29;20130;-77
2021/06/30 12:30:10;;;;;;;1.30;1.20;;;;;;;;;;6127135;28;20050;-77
2021/06/30 12:33:13;;;;;;;1.92;1.00;;;;;;;;;;6092667;29;20077;-77
2021/06/30 12:36:16;;;;;;;1.05;1.02;;;;;;;;;;6092512;29;20104;-77
2021/06/30 12:39:25;;;;;;;1.30;1.20;;;;;;;;;;6091494;29;20140;-77
2021/06/30 12:42:50;;;;;;;1.80;1.23;;;;;;;;;;6097514;29;20134;-77
2021/06/30 12:45:53;;;;;;;2.67;1.20;;;;;;;;;;6118159;28;20122;-77
2021/06/30 12:48:55;;;;;;;1.35;1.20;;;;;;;;;;6154336;28;20133;-77
2021/06/30 12:51:57;;;;;;;1.58;1.20;;;;;;;;;;6139869;28;20127;-77
2021/06/30 12:55:05;;;;;;;2.65;1.30;;;;;;;;;;6134054;28;20186;-77
2021/06/30 12:58:07;;;;;;;1.95;1.20;;;;;;;;;;6114272;29;20517;-77
2021/06/30 13:01:14;;;;;;;1.20;1.10;;;;;;;;;;6124202;28;20118;-77
2021/06/30 13:04:28;;;;;;;1.58;1.25;;;;;;;;;;6137391;28;20055;-77
2021/06/30 13:07:47;;;;;;;1.10;1.00;;;;;;;;;;6137938;28;20047;-78
2021/06/30 13:11:01;;;;;;;0.90;0.80;;;;;;;;;;6135449;28;20134;-77
2021/06/30 13:14:14;;;;;;;1.23;0.70;;;;;;;;;;6123823;28;20126;-77
2021/06/30 13:17:23;;;;;;;0.70;0.70;;;;;;;;;;6097039;29;20102;-77
2021/06/30 13:20:24;;;;;;;0.70;0.70;;;;;;;;;;6112293;29;20043;-77
2021/06/30 13:23:37;;;;;;;1.25;0.82;;;;;;;;;;6129579;29;20134;-77
2021/06/30 13:37:00;;;;;;;0.95;0.75;;;;;;;;;;6132577;28;20062;-77
2021/06/30 13:40:02;;;;;;;0.70;0.70;;;;;;;;;;6129185;28;20071;-76
2021/06/30 13:43:08;;;;;;;1.77;1.02;;;;;;;;;;6133709;28;20118;-76
2021/06/30 13:46:13;;;;;;;1.92;1.23;;;;;;;;;;6131296;28;20039;-76
2021/06/30 13:49:15;;;;;;;1.60;0.80;;;;;;;;;;6133461;28;20083;-77
2021/06/30 13:52:17;;;;;;;0.70;0.70;;;;;;;;;;6129619;28;20133;-77
2021/06/30 13:55:22;;;;;;;0.90;0.90;;;;;;;;;;6128213;28;20063;-76
2021/06/30 13:58:24;;;;;;;1.65;1.02;;;;;;;;;;6134599;28;20048;-77
2021/06/30 14:01:25;;;;;;;1.00;0.90;;;;;;;;;;6143547;28;20074;-77
2021/06/30 14:04:27;;;;;;;2.47;1.10;;;;;;;;;;6133079;28;20737;-76
2021/06/30 14:07:29;;;;;;;0.60;0.55;;;;;;;;;;6138334;28;20170;-77
2021/06/30 14:10:30;;;;;;;0.30;0.30;;;;;;;;;;6131869;28;20056;-77
2021/06/30 14:13:32;;;;;;;0.40;0.40;;;;;;;;;;6133674;28;20130;-77
2021/06/30 14:16:34;;;;;;;0.50;0.43;;;;;;;;;;6124664;28;20062;-76
2021/06/30 14:19:36;;;;;;;0.68;0.60;;;;;;;;;;6115712;29;20496;-76
2021/06/30 14:22:41;;;;;;;0.35;0.35;;;;;;;;;;6130008;29;20444;-76
2021/06/30 14:25:43;;;;;;;0.40;0.30;;;;;;;;;;6113346;28;20139;-76
2021/06/30 14:28:45;;;;;;;0.40;0.40;;;;;;;;;;6114577;29;20047;-76
2021/06/30 14:31:47;;;;;;;2.15;0.60;;;;;;;;;;6113884;29;20829;-76
2021/06/30 14:34:49;;;;;;;0.60;0.60;;;;;;;;;;6129554;28;20047;-76
2021/06/30 14:37:51;;;;;;;0.70;0.70;;;;;;;;;;6113648;29;20051;-76
2021/06/30 14:40:54;;;;;;;1.55;0.73;;;;;;;;;;6127558;28;20058;-76
2021/06/30 14:43:56;;;;;;;2.40;1.00;;;;;;;;;;6138809;28;20105;-77
2021/06/30 14:46:58;;;;;;;1.53;0.90;;;;;;;;;;6133393;28;20085;-77
2021/06/30 14:50:00;;;;;;;1.38;1.00;;;;;;;;;;6121484;28;20043;-77
2021/06/30 14:53:03;;;;;;;1.42;1.05;;;;;;;;;;6148073;28;20043;-77
2021/06/30 14:56:05;;;;;;;2.53;1.20;;;;;;;;;;6129876;28;20130;-77
2021/06/30 14:59:06;;;;;;;2.15;1.10;;;;;;;;;;6115015;29;20047;-77
2021/06/30 15:02:08;;;;;;;0.80;0.80;;;;;;;;;;6131278;28;20082;-77
2021/06/30 15:05:11;;;;;;;1.00;1.00;;;;;;;;;;6116830;29;20047;-76
2021/06/30 15:08:12;;;;;;;4.68;1.02;;;;;;;;;;6118963;28;20130;-77
2021/06/30 15:11:14;;;;;;;2.35;1.00;;;;;;;;;;6142565;28;20532;-76
2021/06/30 15:14:16;;;;;;;3.05;0.90;;;;;;;;;;6156722;28;20428;-77
2021/06/30 15:17:17;;;;;;;1.55;0.90;;;;;;;;;;6121722;28;20180;-77
2021/06/30 15:20:20;;;;;;;0.60;0.60;;;;;;;;;;6119731;28;20044;-77
2021/06/30 15:23:21;;;;;;;0.70;0.55;;;;;;;;;;6141106;28;20039;-77
2021/06/30 15:26:23;;;;;;;1.23;0.70;;;;;;;;;;6120798;28;20182;-77
2021/06/30 15:29:25;;;;;;;1.33;0.60;;;;;;;;;;6116700;29;20398;-77
2021/06/30 15:32:26;;;;;;;0.47;0.45;;;;;;;;;;6116524;28;20043;-77
2021/06/30 15:35:29;;;;;;;0.65;0.52;;;;;;;;;;6114324;29;20122;-77
2021/06/30 15:38:31;;;;;;;0.70;0.70;;;;;;;;;;6131245;28;20071;-77
2021/06/30 15:41:32;;;;;;;0.82;0.70;;;;;;;;;;6133381;28;20241;-77
2021/06/30 15:44:34;;;;;;;1.15;0.60;;;;;;;;;;6136452;28;20082;-77
2021/06/30 15:47:37;;;;;;;1.40;0.80;;;;;;;;;;6137838;28;20050;-77
2021/06/30 15:50:39;;;;;;;1.35;0.80;;;;;;;;;;6140102;28;20460;-77
2021/06/30 15:53:40;;;;;;;1.40;0.85;;;;;;;;;;6138393;28;20475;-77
2021/06/30 15:56:44;;;;;;;0.85;0.82;;;;;;;;;;6119660;28;20043;-77
2021/06/30 15:59:46;;;;;;;1.60;0.90;;;;;;;;;;6139452;28;20598;-78
2021/06/30 16:02:48;;;;;;;1.27;1.00;;;;;;;;;;6157928;28;20047;-77
2021/06/30 16:05:49;;;;;;;1.65;1.27;;;;;;;;;;6154115;28;20138;-78
2021/06/30 16:08:52;;;;;;;1.40;0.95;;;;;;;;;;6138028;28;20470;-77
2021/06/30 16:11:54;;;;;;;2.05;1.25;;;;;;;;;;6139864;28;20398;-77
2021/06/30 16:14:55;;;;;;;1.85;1.30;;;;;;;;;;6138148;28;20083;-78
2021/06/30 16:17:57;;;;;;;0.95;0.85;;;;;;;;;;6139950;28;20175;-77
2021/06/30 16:20:59;;;;;;;1.58;1.30;;;;;;;;;;6138366;28;20070;-78
2021/06/30 16:24:01;;;;;;;1.63;1.10;;;;;;;;;;6144860;28;20133;-78
2021/06/30 16:27:03;;;;;;;1.52;1.42;;;;;;;;;;6135660;28;20511;-77
2021/06/30 16:30:07;;;;;;;2.60;1.60;;;;;;;;;;6138208;28;20165;-77
2021/06/30 16:33:10;;;;;;;2.42;1.73;;;;;;;;;;6140213;28;20513;-77
2021/06/30 16:36:11;;;;;;;;;;;;;;;;;;6143047;28;20047;-78
2021/06/30 16:39:14;;;;;;;2.40;2.17;;;;;;;;;;6141815;28;19923;-77
2021/06/30 16:42:15;;;;;;;2.63;2.20;;;;;;;;;;6161260;28;20050;-78
2021/06/30 16:45:17;;;;;;;2.78;2.58;;;;;;;;;;6143247;28;20451;-77
2021/06/30 16:48:21;;;;;;;2.67;2.47;;;;;;;;;;6146003;28;20122;-77
2021/06/30 16:51:22;;;;;;;2.55;2.35;;;;;;;;;;6146927;28;20178;-78
2021/06/30 16:54:24;;;;;;;2.53;2.33;;;;;;;;;;6163487;28;20054;-78
2021/06/30 16:57:26;;;;;;;2.50;2.30;;;;;;;;;;6120537;29;20052;-78
2021/06/30 17:00:28;;;;;;;3.50;2.92;;;;;;;;;;6095161;29;20568;-78
2021/06/30 17:03:30;;;;;;;3.70;2.50;;;;;;;;;;6091877;29;20127;-78
2021/06/30 17:06:34;;;;;;;2.80;2.60;;;;;;;;;;6091400;29;20040;-77
2021/06/30 17:09:40;;;;;;;2.67;2.47;;;;;;;;;;6093276;29;20059;-78
2021/06/30 17:12:56;;;;;;;2.70;2.50;;;;;;;;;;6108950;29;20051;-78
2021/06/30 17:15:58;;;;;;;3.00;2.67;;;;;;;;;;6114264;29;20063;-78
2021/06/30 17:19:01;;;;;;;3.67;2.90;;;;;;;;;;6111861;29;20154;-77
2021/06/30 17:22:03;;;;;;;3.33;3.03;;;;;;;;;;6114129;29;20475;-77
2021/06/30 17:25:06;;;;;;;3.28;2.90;;;;;;;;;;6099865;29;20048;-78
2021/06/30 17:28:08;;;;;;;3.25;2.95;;;;;;;;;;6118164;28;20047;-78
2021/06/30 17:31:11;;;;;;;4.25;3.40;;;;;;;;;;6136925;28;20076;-78
2021/06/30 17:34:13;;;;;;;3.40;3.10;;;;;;;;;;6140022;28;20122;-78
2021/06/30 17:37:15;;;;;;;4.00;3.58;;;;;;;;;;6141441;28;20059;-78
2021/06/30 17:40:18;;;;;;;5.43;3.88;;;;;;;;;;6136461;28;20047;-78
2021/06/30 17:43:21;;;;;;;3.90;3.60;;;;;;;;;;6119959;29;20150;-77
2021/06/30 17:46:23;;;;;;;;;;;;;;;;;;6134788;28;20043;-77
2021/06/30 17:49:25;;;;;;;5.20;3.65;;;;;;;;;;6143446;28;19981;-78
2021/06/30 17:52:27;;;;;;;4.30;3.90;;;;;;;;;;6144227;28;20075;-78
2021/06/30 17:55:31;;;;;;;4.97;4.05;;;;;;;;;;6140792;28;20043;-78
2021/06/30 17:58:33;;;;;;;5.00;4.15;;;;;;;;;;6159672;28;20043;-77
2021/06/30 18:01:34;;;;;;;5.03;4.53;;;;;;;;;;6143688;28;20135;-78
2021/06/30 18:04:36;;;;;;;5.22;4.72;;;;;;;;;;6157762;28;20122;-77
2021/06/30 18:07:38;;;;;;;5.15;4.50;;;;;;;;;;6142548;28;20130;-78
2021/06/30 18:10:40;;;;;;;4.68;4.10;;;;;;;;;;6140662;28;20413;-77
2021/06/30 18:13:41;;;;;;;5.25;4.50;;;;;;;;;;6138695;28;20660;-77
2021/06/30 18:16:43;;;;;;;5.85;4.80;;;;;;;;;;6137958;28;20051;-77
2021/06/30 18:19:45;;;;;;;7.63;4.30;;;;;;;;;;6137749;28;20062;-77
2021/06/30 18:22:47;;;;;;;6.82;5.00;;;;;;;;;;6133001;28;20112;-78
2021/06/30 18:25:51;;;;;;;6.15;4.93;;;;;;;;;;6127119;29;20139;-78
2021/06/30 18:28:53;;;;;;;5.53;4.97;;;;;;;;;;6110578;29;20425;-77
2021/06/30 18:31:54;;;;;;;7.00;5.60;;;;;;;;;;6127326;28;20557;-77
2021/06/30 18:34:56;;;;;;;7.93;5.60;;;;;;;;;;6113561;29;20063;-78
2021/06/30 18:37:58;;;;;;;8.68;5.13;;;;;;;;;;6113932;29;20063;-78
2021/06/30 18:41:04;;;;;;;6.68;5.70;;;;;;;;;;6126734;28;20556;-78
2021/06/30 18:44:06;;;;;;;6.75;5.57;;;;;;;;;;6133521;28;20122;-77
2021/06/30 18:47:07;;;;;;;7.03;5.25;;;;;;;;;;6132170;28;20149;-78